createdAt,value
2023-05-19T05:13:03.493Z,1028.53
2023-05-19T05:23:17.868Z,1028.53
2023-05-19T05:33:27.939Z,1028.58
2023-05-19T05:43:37.796Z,1028.55
2023-05-19T05:53:47.724Z,1028.55
2023-05-19T06:03:57.355Z,1028.56
2023-05-19T06:14:08.394Z,1028.42
2023-05-19T06:24:18.592Z,1028.43
2023-05-19T06:34:28.151Z,1028.45
2023-05-19T06:44:37.909Z,1028.44
2023-05-19T06:54:47.658Z,1028.43
2023-05-19T07:04:57.447Z,1028.48
2023-05-19T07:15:07.338Z,1028.44
2023-05-19T07:25:17.320Z,1028.44
2023-05-19T07:35:27.217Z,1028.40
2023-05-19T07:45:37.292Z,1028.11
2023-05-19T07:55:48.933Z,1028.05
2023-05-19T08:05:59.397Z,1028.20
2023-05-19T08:16:10.169Z,1028.05
2023-05-19T08:26:20.187Z,1028.12
2023-05-19T08:36:30.519Z,1028.16
2023-05-19T08:46:41.073Z,1028.07
2023-05-19T08:56:50.487Z,1028.02
2023-05-19T09:06:59.032Z,1027.99
2023-05-19T09:17:08.620Z,1027.83
2023-05-19T09:27:18.090Z,1027.72
2023-05-19T09:37:28.252Z,1027.59
2023-05-19T09:47:39.119Z,1027.66
2023-05-19T09:57:49.148Z,1027.60
2023-05-19T10:07:58.600Z,1027.52
2023-05-19T10:18:08.616Z,1027.42
2023-05-19T10:28:18.463Z,1027.39
2023-05-19T10:38:28.742Z,1027.47
2023-05-19T10:48:38.817Z,1027.42
2023-05-19T10:58:49.693Z,1027.17
2023-05-19T11:09:00.253Z,1027.14
2023-05-19T11:19:09.873Z,1027.13
2023-05-19T11:29:20.440Z,1027.07
2023-05-19T11:39:33.196Z,1026.97
2023-05-19T11:49:43.446Z,1026.93
2023-05-19T11:59:53.930Z,1026.96
2023-05-19T12:10:04.755Z,1026.87
2023-05-19T12:20:14.608Z,1026.88
2023-05-19T12:30:25.027Z,1026.94
2023-05-19T12:40:34.968Z,1026.86
2023-05-19T12:50:45.292Z,1026.68
2023-05-19T13:00:55.516Z,1026.59
2023-05-19T13:11:04.600Z,1026.63
2023-05-19T13:21:14.820Z,1026.55
2023-05-19T13:31:26.078Z,1026.49
2023-05-19T13:41:36.038Z,1026.46
2023-05-19T13:51:45.282Z,1026.37
2023-05-19T14:01:55.045Z,1026.58
2023-05-19T14:12:05.717Z,1026.59
2023-05-19T14:22:16.141Z,1026.52
2023-05-19T14:32:26.351Z,1026.56
2023-05-19T14:42:37.949Z,1026.52
2023-05-19T14:52:48.794Z,1026.59
2023-05-19T15:02:59.124Z,1026.68
2023-05-19T15:13:08.537Z,1026.66
2023-05-19T15:23:18.161Z,1026.61
2023-05-19T15:33:27.913Z,1026.63
2023-05-19T15:43:37.641Z,1026.61
2023-05-19T15:53:47.328Z,1026.59
2023-05-19T16:03:57.197Z,1026.54
2023-05-19T16:14:08.296Z,1026.51
2023-05-19T16:24:19.753Z,1026.42
2023-05-19T16:34:30.654Z,1026.45
2023-05-19T16:44:40.771Z,1026.39
2023-05-19T16:54:51.494Z,1026.40
2023-05-19T17:05:01.488Z,1026.30
2023-05-19T17:15:11.060Z,1026.29
2023-05-19T17:25:20.712Z,1026.42
2023-05-19T17:35:30.608Z,1026.46
2023-05-19T17:45:40.128Z,1026.60
2023-05-19T17:55:50.955Z,1026.69
2023-05-19T18:06:00.928Z,1026.70
2023-05-19T18:16:11.718Z,1026.63
2023-05-19T18:26:22.866Z,1026.66
2023-05-19T18:36:33.238Z,1026.81
2023-05-19T18:46:42.845Z,1026.86
2023-05-19T18:56:53.539Z,1026.87
2023-05-19T19:07:04.352Z,1026.91
2023-05-19T19:17:13.825Z,1026.87
2023-05-19T19:27:23.222Z,1026.97
2023-05-19T19:37:33.233Z,1027.08
2023-05-19T19:47:43.291Z,1027.02
2023-05-19T19:57:53.090Z,1027.00
2023-05-19T20:08:02.543Z,1027.10
2023-05-19T20:18:13.282Z,1027.12
2023-05-19T20:28:24.743Z,1027.18
2023-05-19T20:38:34.856Z,1027.23
2023-05-19T20:48:44.990Z,1027.36
2023-05-19T20:58:54.293Z,1027.32
2023-05-19T21:09:04.685Z,1027.34
2023-05-19T21:19:15.399Z,1027.36
2023-05-19T21:29:53.964Z,1027.43
2023-05-19T21:40:05.443Z,1027.48
2023-05-19T21:50:16.734Z,1027.57
2023-05-19T22:00:27.353Z,1027.60
2023-05-19T22:10:37.280Z,1027.58
2023-05-19T22:20:48.914Z,1027.60
2023-05-19T22:30:58.791Z,1027.65
2023-05-19T22:41:09.777Z,1027.72
2023-05-19T22:51:20.472Z,1027.75
2023-05-19T23:01:31.189Z,1027.79
2023-05-19T23:11:40.758Z,1027.81
2023-05-19T23:21:51.583Z,1027.75
2023-05-19T23:32:02.339Z,1027.71
2023-05-19T23:42:12.950Z,1027.65
2023-05-19T23:52:23.532Z,1027.60
